<?xml version='1.0' encoding='UTF-8'?>
<gpx xmlns="http://www.topografix.com/GPX/1/1" creator="www.balnam.be" version="1.1" xmlns:xsi="http://www.w3.org/2001/XMLSchema-instance" xsi:schemaLocation="http://www.topografix.com/GPX/1/1 http://www.topografix.com/GPX/1/1/gpx.xsd">
<trk>
<name>bgnbt83</name>
<cmt>v</cmt>
<desc>Baisy-Thy Sentier n°83 Entre le chemin du Vert Baty et la rue Banterlez BAI-C019</desc>
<link href="https://chemins.be/baisythy/sentier/83"/><trkseg>
<trkpt lat="50.607018" lon="4.533572"><time>2026-05-02T20:18:46Z</time></trkpt>
<trkpt lat="50.605262" lon="4.529455"><time>2026-05-02T20:28:46Z</time></trkpt>
<trkpt lat="50.604866" lon="4.527505"><time>2026-05-02T20:38:46Z</time></trkpt>
<trkpt lat="50.604852" lon="4.526850"><time>2026-05-02T20:48:46Z</time></trkpt>
<trkpt lat="50.604692" lon="4.525243"><time>2026-05-02T20:58:46Z</time></trkpt>
<trkpt lat="50.604200" lon="4.522891"><time>2026-05-02T21:08:46Z</time></trkpt>
<trkpt lat="50.604055" lon="4.522340"><time>2026-05-02T21:18:46Z</time></trkpt>
<trkpt lat="50.604046" lon="4.521886"><time>2026-05-02T21:28:46Z</time></trkpt>
<trkpt lat="50.603613" lon="4.518614"><time>2026-05-02T21:38:46Z</time></trkpt>
<trkpt lat="50.602964" lon="4.515093"><time>2026-05-02T21:48:46Z</time></trkpt>
<trkpt lat="50.602959" lon="4.513898"><time>2026-05-02T21:58:46Z</time></trkpt>
<trkpt lat="50.602775" lon="4.513032"><time>2026-05-02T22:08:46Z</time></trkpt>
<trkpt lat="50.602615" lon="4.512099"><time>2026-05-02T22:18:46Z</time></trkpt>
<trkpt lat="50.602124" lon="4.510430"><time>2026-05-02T22:28:46Z</time></trkpt>
<trkpt lat="50.601433" lon="4.508084"><time>2026-05-02T22:38:46Z</time></trkpt>
<trkpt lat="50.600230" lon="4.506498"><time>2026-05-02T22:48:46Z</time></trkpt>
</trkseg></trk>
<trk>
<name>bgnbt83</name>
<cmt>s</cmt>
<desc>Baisy-Thy Sentier n°83 Entre le chemin du Vert Baty et la rue Banterlez BAI-C019</desc>
<link href="https://chemins.be/baisythy/sentier/83"/><trkseg>
<trkpt lat="50.600230" lon="4.506498"><time>2026-05-02T22:48:46Z</time></trkpt>
<trkpt lat="50.599071" lon="4.505633"><time>2026-05-02T22:58:46Z</time></trkpt>
<trkpt lat="50.597563" lon="4.504461"><time>2026-05-02T23:08:46Z</time></trkpt>
</trkseg></trk>
<trk>
<name>bgnbt83</name>
<cmt>v</cmt>
<desc>Baisy-Thy Sentier n°83 Entre le chemin du Vert Baty et la rue Banterlez BAI-C019</desc>
<link href="https://chemins.be/baisythy/sentier/83"/><trkseg>
<trkpt lat="50.597563" lon="4.504461"><time>2026-05-02T23:08:46Z</time></trkpt>
<trkpt lat="50.597309" lon="4.503763"><time>2026-05-02T23:18:46Z</time></trkpt>
<trkpt lat="50.596857" lon="4.503134"><time>2026-05-02T23:28:46Z</time></trkpt>
<trkpt lat="50.596369" lon="4.502814"><time>2026-05-02T23:38:46Z</time></trkpt>
<trkpt lat="50.595308" lon="4.502458"><time>2026-05-02T23:48:46Z</time></trkpt>
<trkpt lat="50.595056" lon="4.503150"><time>2026-05-02T23:58:46Z</time></trkpt>
<trkpt lat="50.593673" lon="4.501875"><time>2026-05-03T00:08:46Z</time></trkpt>
<trkpt lat="50.592577" lon="4.500982"><time>2026-05-03T00:18:46Z</time></trkpt>
<trkpt lat="50.591769" lon="4.499581"><time>2026-05-03T00:28:46Z</time></trkpt>
</trkseg>
</trk>
</gpx>